Flight Track Log - Related Links

Times and Time Zones

All times are in EDT time to prevent confusion due to time zone crossing. See the C-FCJS flight status page for this flight to view local times or setup timezone preferences in your user account.

Time Position Orientation Groundspeed Altitude Reporting Facility
EDT Latitude Longitude Course Direction KTS MPH feet Rate Location/Type
Sun 12:24:49 PM 45.0833 -78.4500 235° Southwest 170 196 5,600  Level Toronto Center
Sun 12:25:49 PM 45.0667 -78.4833 235° Southwest 120 138 6,100 550 Climbing Toronto Center
Sun 12:26:49 PM 45.0500 -78.5167 235° Southwest 120 138 6,700 550 Climbing Toronto Center
Sun 12:27:49 PM 45.0333 -78.5667 245° Southwest 120 138 7,200 500 Climbing Toronto Center
Sun 12:28:49 PM 45.0167 -78.6000 235° Southwest 130 150 7,700 400 Climbing Toronto Center
Sun 12:29:49 PM 45.0000 -78.6500 245° Southwest 130 150 8,000 150 Climbing Toronto Center
Sun 12:30:49 PM 44.9833 -78.7167 251° West 150 173 8,000 -50 Level Toronto Center
Sun 12:31:49 PM 44.9500 -78.7667 227° Southwest 160 184 7,900  Descending Toronto Center
Sun 12:32:49 PM 44.9333 -78.8000 235° Southwest 160 184 8,000  Climbing Toronto Center
Sun 12:33:49 PM 44.9167 -78.8833 254° West 160 184 7,900  Descending Toronto Center
Sun 12:34:49 PM 44.9000 -78.9333 245° Southwest 160 184 8,000  Climbing Toronto Center
Sun 12:35:49 PM 44.8667 -79.0000 235° Southwest 160 184 7,900  Descending Toronto Center
Sun 12:36:49 PM 44.8500 -79.0500 245° Southwest 160 184 8,000  Climbing Toronto Center
Sun 12:37:49 PM 44.8333 -79.1000 245° Southwest 160 184 7,900 -50 Descending Toronto Center
Sun 12:38:49 PM 44.8167 -79.1667 251° West 160 184 7,900 50 Level Toronto Center
Sun 12:39:49 PM 44.7833 -79.2167 227° Southwest 160 184 8,000 50 Climbing Toronto Center
Sun 12:40:49 PM 44.7667 -79.2500 235° Southwest 160 184 8,000  Level Toronto Center
Sun 12:41:49 PM 44.7500 -79.3333 254° West 160 184 8,000  Level Toronto Center
Sun 12:42:49 PM 44.7167 -79.3667 215° Southwest 160 184 8,000  Level Toronto Center
Sun 12:43:49 PM 44.7000 -79.4167 245° Southwest 160 184 8,000  Level Toronto Center
Sun 12:44:49 PM 44.6833 -79.5000 254° West 160 184 8,000  Level Toronto Center
Sun 12:45:49 PM 44.6667 -79.5333 235° Southwest 160 184 8,000  Level Toronto Center
Sun 12:46:49 PM 44.6500 -79.5833 245° Southwest 150 173 8,000  Level Toronto Center
Sun 12:47:49 PM 44.6167 -79.6333 227° Southwest 160 184 8,000  Level Toronto Center
Sun 12:48:49 PM 44.6000 -79.7000 251° West 150 173 8,000  Level Toronto Center
Sun 12:49:49 PM 44.5833 -79.7500 245° Southwest 160 184 8,000 -50 Level Toronto Center
Sun 12:50:49 PM 44.5500 -79.8000 227° Southwest 150 173 7,900  Descending Toronto Center
Sun 12:51:49 PM 44.5167 -79.8000 180° South 150 173 8,000  Climbing Toronto Center
Sun 12:52:49 PM 44.4833 -79.8167 200° South 150 173 7,900  Descending Toronto Center
Sun 12:53:49 PM 44.4333 -79.8500 205° Southwest 140 161 8,000 50 Climbing Toronto Center
Sun 12:54:49 PM 44.4000 -79.8667 200° South 140 161 8,000  Level Toronto Center
Sun 12:55:49 PM 44.3667 -79.8833 200° South 140 161 8,000  Level Toronto Center
Sun 12:56:49 PM 44.3333 -79.9167 216° Southwest 140 161 8,000  Level Toronto Center
Sun 12:57:49 PM 44.2833 -79.9167 180° South 140 161 8,000  Level Toronto Center
Sun 12:58:49 PM 44.2500 -79.9333 200° South 140 161 8,000  Level Toronto Center
Sun 12:59:49 PM 44.2167 -79.9667 216° Southwest 140 161 8,000  Level Toronto Center
Sun 01:00:49 PM 44.1833 -79.9833 200° South 140 161 8,000  Level Toronto Center
Sun 01:01:49 PM 44.1500 -80.0000 200° South 140 161 8,000  Level Toronto Center
Sun 01:02:49 PM 44.1000 -80.0333 206° Southwest 150 173 8,000  Level Toronto Center
Sun 01:03:49 PM 44.0667 -80.0500 200° South 150 173 8,000  Level Toronto Center
Sun 01:04:49 PM 44.0333 -80.0500 180° South 150 173 8,000  Level Toronto Center
Sun 01:05:49 PM 43.9833 -80.0667 193° South 150 173 8,000  Level Toronto Center
Sun 01:06:49 PM 43.9500 -80.1000 216° Southwest 140 161 8,000  Level Toronto Center
Sun 01:07:49 PM 43.9167 -80.1167 200° South 150 173 8,000  Level Toronto Center
Sun 01:08:49 PM 43.8833 -80.1500 216° Southwest 150 173 8,000 -300 Level Toronto Center
Sun 01:09:49 PM 43.8333 -80.1667 194° South 160 184 7,400 -500 Descending Toronto Center
Sun 01:10:49 PM 43.8000 -80.1833 200° South 160 184 7,000 -200 Descending Toronto Center
Sun 01:11:49 PM 43.7500 -80.2167 206° Southwest 150 173 7,000  Level Toronto Center
Sun 01:12:49 PM 43.7167 -80.2333 200° South 140 161 7,000  Level Toronto Center
Sun 01:13:49 PM 43.6833 -80.2333 180° South 140 161 7,000 -250 Level Toronto Center
Sun 01:14:49 PM 43.6500 -80.2500 200° South 150 173 6,500 -550 Descending Toronto Center
Sun 01:15:49 PM 43.6000 -80.2500 180° South 160 184 5,900 -500 Descending Toronto Center
Sun 01:16:49 PM 43.5500 -80.2500 180° South 150 173 5,500 -400 Descending Toronto Center
Sun 01:17:49 PM 43.5167 -80.2500 180° South 150 173 5,100 -252 Descending Toronto Center
Sun 01:18:48 PM 43.4833 -80.2500 180° South 140 161 5,000 -50 Descending Toronto Center
Sun 01:19:49 PM 43.4333 -80.2500 180° South 140 161 5,000  Level Toronto Center
Sun 01:20:49 PM 43.4000 -80.2500 180° South 130 150 5,000  Level Toronto Center
Sun 01:21:49 PM 43.3667 -80.2500 180° South 130 150 5,000 -369 Level Toronto Center
Sun 01:23:48 PM 43.2833 -80.2333 172° South 150 173 3,900 -335 Descending Toronto Center
Sun 01:24:48 PM 43.2667 -80.1833 115° Southeast 130 150 4,000 50 Climbing Toronto Center
Sun 01:25:49 PM 43.2500 -80.1667 144° Southeast 110 127 4,000 -397 Level Toronto Center
Sun 01:26:49 PM 43.2167 -80.2000 216° Southwest 130 150 3,200 -807 Descending Toronto Center
Sun 01:27:48 PM 43.1833 -80.2500 228° Southwest 140 161 2,400 -814 Descending Toronto Center
Sun 01:29:00 PM 43.1601 -80.2914 190° South  Level Estimated
Sun 01:36:00 PM 43.1167 -80.3333 190° South  Level FlightAware Approximate
Sun 01:37:00 PM 43.1314 -80.3425 190° South  Level Estimated
Sun 01:38:00 PM 43.1314 -80.3425 190° South  Level Estimated
Sun 01:39:00 PM 43.1314 -80.3425 190° South  Level Estimated
Sun 01:40:00 PM 43.1314 -80.3425 190° South  Level Estimated
Sun 01:41:00 PM 43.1314 -80.3425 190° South  Level Estimated
Sun 01:42:00 PM 43.1314 -80.3425 190° South  Level Estimated
Sun 01:43:00 PM 43.1314 -80.3425 190° South  Level Estimated
Sun 01:44:00 PM 43.1314 -80.3425 190° South  Level Estimated
Sun 01:45:00 PM 43.1314 -80.3425 190° South  Level Estimated

Login

Don't have an account? Register now (free) for customized features, flight alerts, and more!